Time;durP1;ratioP1;P1;durP2;ratioP2;P2;SDS_P1;SDS_P2;PMS_P1;PMS_P2;Temp;Humidity;BMP_temperature;BMP_pressure;BME280_temperature;BME280_humidity;BME280_pressure;Samples;Min_cycle;Max_cycle;Signal;HPM_P1;HPM_P2
2023/01/26 00:02:38;;;;;;;20.65;4.88;;;;;;;;;;10357249;28;20022;-46
2023/01/26 00:07:43;;;;;;;17.63;4.85;;;;;;;;;;10362883;28;20037;-50
2023/01/26 00:12:44;;;;;;;6.45;4.13;;;;;;;;;;10371011;28;20030;-45
2023/01/26 00:17:45;;;;;;;14.80;4.68;;;;;;;;;;10371225;28;20037;-46
2023/01/26 00:22:45;;;;;;;11.23;4.43;;;;;;;;;;10371331;28;20363;-57
2023/01/26 00:27:46;;;;;;;8.05;4.40;;;;;;;;;;10371024;28;20393;-45
2023/01/26 00:32:46;;;;;;;6.32;4.28;;;;;;;;;;10371517;28;20052;-48
2023/01/26 00:37:47;;;;;;;8.77;4.50;;;;;;;;;;10370425;28;20049;-45
2023/01/26 00:42:47;;;;;;;7.28;4.90;;;;;;;;;;10370993;28;20029;-47
2023/01/26 00:47:48;;;;;;;5.85;4.03;;;;;;;;;;10370631;28;20029;-53
2023/01/26 00:52:49;;;;;;;8.70;4.80;;;;;;;;;;10370305;28;20519;-54
2023/01/26 00:57:49;;;;;;;4.68;3.85;;;;;;;;;;10370165;28;20080;-54
2023/01/26 01:02:50;;;;;;;13.68;5.05;;;;;;;;;;10369980;28;20022;-47
2023/01/26 01:07:51;;;;;;;17.80;4.43;;;;;;;;;;10369662;28;20351;-57
2023/01/26 01:12:51;;;;;;;10.32;4.32;;;;;;;;;;10369961;28;20433;-45
2023/01/26 01:17:52;;;;;;;8.57;4.80;;;;;;;;;;10370211;28;20022;-46
2023/01/26 01:22:52;;;;;;;10.95;4.60;;;;;;;;;;10369666;28;20046;-49
2023/01/26 01:27:53;;;;;;;5.15;4.25;;;;;;;;;;10369233;28;20500;-45
2023/01/26 01:32:53;;;;;;;7.13;3.80;;;;;;;;;;10368659;28;20100;-46
2023/01/26 01:37:54;;;;;;;10.30;4.20;;;;;;;;;;10367429;28;20052;-65
2023/01/26 01:42:54;;;;;;;7.57;4.20;;;;;;;;;;10369199;28;20025;-61
2023/01/26 01:48:00;;;;;;;5.40;4.18;;;;;;;;;;10368214;28;20045;-65
2023/01/26 01:53:01;;;;;;;12.35;4.28;;;;;;;;;;10366319;28;20045;-60
2023/01/26 01:58:03;;;;;;;6.07;4.30;;;;;;;;;;10366593;28;20064;-65
2023/01/26 02:03:13;;;;;;;8.30;4.28;;;;;;;;;;10368165;28;20060;-67
2023/01/26 02:08:17;;;;;;;6.97;4.15;;;;;;;;;;10366131;28;20036;-58
2023/01/26 02:13:18;;;;;;;5.82;3.90;;;;;;;;;;10366010;28;20026;-61
2023/01/26 02:18:19;;;;;;;9.45;3.92;;;;;;;;;;10365995;28;20030;-55
2023/01/26 02:23:38;;;;;;;5.63;3.78;;;;;;;;;;10367073;28;20033;-63
2023/01/26 02:28:41;;;;;;;5.63;4.07;;;;;;;;;;10367316;28;20032;-64
2023/01/26 02:33:42;;;;;;;4.30;3.90;;;;;;;;;;10353418;28;20109;-61
2023/01/26 02:38:59;;;;;;;5.15;3.80;;;;;;;;;;10365384;28;20473;-52
2023/01/26 02:44:03;;;;;;;5.13;3.78;;;;;;;;;;10365247;28;20025;-52
2023/01/26 02:59:42;;;;;;;5.25;3.63;;;;;;;;;;10366228;28;20025;-49
2023/01/26 03:04:43;;;;;;;4.10;3.50;;;;;;;;;;10365826;28;20033;-50
2023/01/26 03:09:43;;;;;;;4.05;3.63;;;;;;;;;;10365858;28;20037;-46
2023/01/26 03:14:44;;;;;;;4.85;3.22;;;;;;;;;;10365755;28;20496;-55
2023/01/26 03:30:26;;;;;;;5.18;3.55;;;;;;;;;;10365493;28;20026;-62
2023/01/26 03:35:27;;;;;;;4.18;3.40;;;;;;;;;;10365628;28;20072;-60
2023/01/26 03:56:24;;;;;;;3.95;3.38;;;;;;;;;;10372719;28;20327;-45
2023/01/26 04:01:26;;;;;;;5.13;3.58;;;;;;;;;;10372586;28;20034;-46
2023/01/26 04:11:46;;;;;;;;;;;;;;;;;;10373161;28;20293;-65
2023/01/26 04:22:06;;;;;;;4.93;2.88;;;;;;;;;;10371742;28;20065;-65
2023/01/26 04:27:07;;;;;;;5.05;3.53;;;;;;;;;;10371232;28;20532;-66
2023/01/26 04:32:08;;;;;;;4.97;3.38;;;;;;;;;;10371014;28;20052;-67
2023/01/26 04:37:09;;;;;;;5.43;3.53;;;;;;;;;;10371146;28;20026;-62
2023/01/26 04:42:09;;;;;;;4.43;3.45;;;;;;;;;;10371192;28;20369;-69
2023/01/26 04:47:10;;;;;;;4.75;3.72;;;;;;;;;;10369546;28;20029;-64
2023/01/26 04:52:11;;;;;;;4.13;3.40;;;;;;;;;;10370550;28;20061;-57
2023/01/26 04:57:11;;;;;;;3.80;3.22;;;;;;;;;;10370464;28;20037;-54
2023/01/26 05:02:12;;;;;;;4.68;3.35;;;;;;;;;;10369342;28;20021;-54
2023/01/26 05:07:12;;;;;;;3.28;2.95;;;;;;;;;;10368668;28;20033;-50
2023/01/26 05:17:32;;;;;;;4.65;3.30;;;;;;;;;;10368499;28;20418;-46
2023/01/26 05:22:32;;;;;;;4.63;3.40;;;;;;;;;;10369621;28;20034;-48
2023/01/26 05:27:33;;;;;;;4.00;3.10;;;;;;;;;;10369431;28;20229;-49
2023/01/26 05:32:34;;;;;;;4.68;3.30;;;;;;;;;;10368244;28;20044;-46
2023/01/26 05:37:35;;;;;;;4.85;3.20;;;;;;;;;;10368858;28;20097;-49
2023/01/26 05:42:35;;;;;;;8.20;3.25;;;;;;;;;;10368439;28;20431;-56
2023/01/26 05:47:36;;;;;;;4.22;3.47;;;;;;;;;;10361850;28;20033;-57
2023/01/26 05:52:37;;;;;;;4.43;3.10;;;;;;;;;;10366609;28;20129;-47
2023/01/26 05:57:37;;;;;;;4.45;3.15;;;;;;;;;;10367248;28;20578;-46
2023/01/26 06:02:38;;;;;;;4.60;3.22;;;;;;;;;;10367303;28;20088;-49
2023/01/26 06:07:38;;;;;;;4.22;3.00;;;;;;;;;;10365652;28;20049;-46
2023/01/26 06:12:41;;;;;;;3.78;2.85;;;;;;;;;;10366385;28;20367;-46
2023/01/26 06:17:42;;;;;;;3.00;2.70;;;;;;;;;;10364041;28;20398;-46
2023/01/26 06:22:42;;;;;;;4.03;2.97;;;;;;;;;;10366071;28;20041;-45
2023/01/26 06:27:43;;;;;;;4.15;2.97;;;;;;;;;;10386733;28;20033;-51
2023/01/26 06:32:46;;;;;;;3.63;3.00;;;;;;;;;;10365243;28;20038;-48
2023/01/26 06:37:50;;;;;;;15.13;3.22;;;;;;;;;;10364582;28;20493;-51
2023/01/26 06:42:51;;;;;;;7.25;3.17;;;;;;;;;;10365543;28;20520;-53
2023/01/26 06:47:51;;;;;;;3.30;2.65;;;;;;;;;;10362956;28;20076;-61
2023/01/26 06:53:01;;;;;;;6.45;2.97;;;;;;;;;;10363028;28;20053;-57
2023/01/26 06:58:02;;;;;;;7.88;2.88;;;;;;;;;;10363231;28;20390;-46
2023/01/26 07:03:02;;;;;;;10.68;4.00;;;;;;;;;;10365313;28;20037;-61
2023/01/26 07:08:05;;;;;;;5.78;3.47;;;;;;;;;;10368886;28;20481;-50
2023/01/26 07:13:06;;;;;;;15.75;4.00;;;;;;;;;;10362579;28;20036;-48
2023/01/26 07:18:07;;;;;;;15.88;4.50;;;;;;;;;;10365773;28;20045;-54
2023/01/26 07:23:08;;;;;;;15.80;4.55;;;;;;;;;;10368589;28;20022;-50
2023/01/26 07:28:09;;;;;;;14.73;4.43;;;;;;;;;;10374359;28;20080;-48
2023/01/26 07:33:10;;;;;;;12.68;4.38;;;;;;;;;;10373584;28;20034;-48
2023/01/26 07:38:10;;;;;;;12.57;4.13;;;;;;;;;;10373240;28;20038;-48
2023/01/26 07:43:12;;;;;;;10.57;4.47;;;;;;;;;;10373383;28;20018;-47
2023/01/26 07:48:15;;;;;;;21.50;5.38;;;;;;;;;;10373019;28;20056;-48
2023/01/26 07:53:21;;;;;;;17.40;4.30;;;;;;;;;;10372680;28;20049;-58
2023/01/26 07:58:22;;;;;;;6.93;3.88;;;;;;;;;;10372115;28;20067;-48
2023/01/26 08:03:24;;;;;;;8.32;3.90;;;;;;;;;;10372402;28;20389;-47
2023/01/26 08:08:25;;;;;;;5.40;3.67;;;;;;;;;;10371808;28;20080;-54
2023/01/26 08:13:29;;;;;;;12.02;4.72;;;;;;;;;;10354866;28;20105;-51
2023/01/26 08:18:30;;;;;;;12.75;4.15;;;;;;;;;;10371349;28;20075;-52
2023/01/26 08:23:30;;;;;;;11.80;4.00;;;;;;;;;;10371728;28;20111;-50
2023/01/26 08:28:31;;;;;;;6.57;3.80;;;;;;;;;;10371550;28;20418;-57
2023/01/26 08:33:33;;;;;;;13.23;4.22;;;;;;;;;;10370618;28;20112;-55
2023/01/26 08:38:34;;;;;;;9.85;4.60;;;;;;;;;;10371826;28;20121;-47
2023/01/26 08:43:35;;;;;;;7.13;3.90;;;;;;;;;;10371109;28;20098;-49
2023/01/26 08:48:36;;;;;;;6.28;3.80;;;;;;;;;;10370642;28;20034;-50
2023/01/26 08:53:37;;;;;;;6.95;4.10;;;;;;;;;;10370205;28;20077;-53
2023/01/26 08:58:38;;;;;;;9.65;4.03;;;;;;;;;;10370325;28;20110;-56
2023/01/26 09:03:39;;;;;;;5.75;3.67;;;;;;;;;;10370242;28;20029;-63
2023/01/26 09:08:40;;;;;;;13.52;4.60;;;;;;;;;;10369719;28;20646;-62
2023/01/26 09:13:41;;;;;;;5.97;4.20;;;;;;;;;;10370030;28;20150;-53
2023/01/26 09:18:41;;;;;;;6.75;3.75;;;;;;;;;;10369420;28;20025;-60
2023/01/26 09:23:42;;;;;;;5.20;3.92;;;;;;;;;;10369103;28;20025;-62
2023/01/26 09:28:43;;;;;;;8.70;4.05;;;;;;;;;;10368960;28;20033;-48
2023/01/26 09:33:43;;;;;;;10.18;4.05;;;;;;;;;;10368399;28;20050;-61
2023/01/26 09:38:44;;;;;;;6.03;3.85;;;;;;;;;;10368645;28;20034;-53
2023/01/26 09:43:50;;;;;;;6.18;3.75;;;;;;;;;;10368230;28;20029;-54
2023/01/26 09:49:23;;;;;;;7.78;3.47;;;;;;;;;;10349704;28;20037;-52
2023/01/26 09:54:47;;;;;;;6.40;3.92;;;;;;;;;;10367952;28;20068;-59
2023/01/26 10:00:08;;;;;;;6.03;3.50;;;;;;;;;;10351594;28;20030;-55
2023/01/26 10:05:19;;;;;;;6.32;3.90;;;;;;;;;;10367993;28;20084;-50
2023/01/26 10:10:29;;;;;;;5.47;4.13;;;;;;;;;;10367828;28;20112;-49
2023/01/26 10:15:32;;;;;;;7.07;3.95;;;;;;;;;;10350230;28;20021;-67
2023/01/26 10:20:41;;;;;;;7.40;3.78;;;;;;;;;;10367134;28;20022;-63
2023/01/26 10:25:45;;;;;;;8.77;4.50;;;;;;;;;;10349962;28;20095;-56
2023/01/26 10:30:47;;;;;;;6.07;3.70;;;;;;;;;;10366595;28;20033;-55
2023/01/26 10:35:48;;;;;;;6.10;4.05;;;;;;;;;;10403438;23;20076;-58
2023/01/26 10:40:49;;;;;;;7.22;3.88;;;;;;;;;;10447276;28;20035;-57
2023/01/26 10:45:49;;;;;;;6.93;4.22;;;;;;;;;;10429455;28;20484;-56
2023/01/26 10:50:50;;;;;;;5.57;3.95;;;;;;;;;;10405599;28;20083;-58
2023/01/26 10:56:06;;;;;;;9.88;3.55;;;;;;;;;;10405981;28;20359;-55
2023/01/26 11:01:11;;;;;;;5.88;3.45;;;;;;;;;;10405527;28;20032;-56
2023/01/26 11:06:16;;;;;;;8.43;4.15;;;;;;;;;;10405789;28;20025;-55
2023/01/26 11:11:28;;;;;;;8.05;3.88;;;;;;;;;;10405766;28;20334;-46
2023/01/26 11:16:29;;;;;;;4.75;3.53;;;;;;;;;;10388390;28;20068;-49
2023/01/26 11:21:57;;;;;;;6.93;3.95;;;;;;;;;;10387934;28;20091;-53
2023/01/26 11:27:29;;;;;;;4.97;3.47;;;;;;;;;;10405733;28;20029;-47
2023/01/26 11:33:01;;;;;;;8.70;3.70;;;;;;;;;;10346571;28;20475;-48
2023/01/26 11:38:31;;;;;;;7.38;3.80;;;;;;;;;;10393606;28;20052;-51
2023/01/26 11:44:14;;;;;;;7.38;3.45;;;;;;;;;;10396080;28;20587;-49
2023/01/26 11:49:34;;;;;;;6.68;3.63;;;;;;;;;;10397236;28;20029;-46
2023/01/26 11:55:13;;;;;;;5.38;3.38;;;;;;;;;;10387913;28;20021;-47
2023/01/26 12:00:37;;;;;;;4.07;3.40;;;;;;;;;;10384353;28;20044;-47
2023/01/26 12:05:46;;;;;;;4.75;3.40;;;;;;;;;;10393216;28;20384;-49
2023/01/26 12:10:56;;;;;;;7.63;3.42;;;;;;;;;;10379656;28;20111;-51
2023/01/26 12:16:08;;;;;;;5.57;3.25;;;;;;;;;;10400696;28;20570;-47
2023/01/26 12:21:10;;;;;;;7.10;3.50;;;;;;;;;;10412490;28;20050;-48
2023/01/26 12:26:17;;;;;;;6.35;3.65;;;;;;;;;;10412467;28;20141;-51
2023/01/26 12:31:26;;;;;;;5.57;3.20;;;;;;;;;;10394436;28;20040;-53
2023/01/26 12:37:10;;;;;;;4.70;3.30;;;;;;;;;;10379135;28;20052;-47
2023/01/26 12:42:17;;;;;;;7.38;3.50;;;;;;;;;;10371787;28;20104;-46
2023/01/26 12:47:48;;;;;;;3.75;3.05;;;;;;;;;;10376759;28;20017;-46
2023/01/26 12:53:17;;;;;;;3.63;3.00;;;;;;;;;;10386553;28;20833;-46
2023/01/26 12:58:21;;;;;;;4.32;3.40;;;;;;;;;;10397817;28;20250;-46
2023/01/26 13:03:31;;;;;;;4.07;3.33;;;;;;;;;;10357867;28;20029;-48
2023/01/26 13:08:31;;;;;;;4.57;3.10;;;;;;;;;;10351597;28;20044;-46
2023/01/26 13:13:52;;;;;;;4.03;3.08;;;;;;;;;;10370769;28;20470;-48
2023/01/26 13:18:54;;;;;;;4.30;3.10;;;;;;;;;;10369053;28;20041;-47
2023/01/26 13:23:55;;;;;;;5.57;3.45;;;;;;;;;;10371552;28;20037;-48
2023/01/26 13:29:32;;;;;;;4.00;3.13;;;;;;;;;;10353186;28;20030;-49
2023/01/26 13:34:43;;;;;;;4.47;3.25;;;;;;;;;;10366138;28;20482;-47
2023/01/26 13:39:51;;;;;;;4.28;3.33;;;;;;;;;;10378250;28;20489;-49
2023/01/26 13:45:00;;;;;;;4.35;3.35;;;;;;;;;;10392608;28;20480;-48
2023/01/26 13:50:02;;;;;;;4.30;3.28;;;;;;;;;;10389074;28;20025;-47
2023/01/26 13:55:11;;;;;;;4.07;3.08;;;;;;;;;;10406982;28;20116;-46
2023/01/26 14:00:13;;;;;;;10.85;3.28;;;;;;;;;;10385744;28;20037;-51
2023/01/26 14:05:21;;;;;;;10.68;3.78;;;;;;;;;;10405048;28;20041;-47
2023/01/26 14:10:22;;;;;;;15.77;3.58;;;;;;;;;;10408234;28;20388;-47
2023/01/26 14:15:28;;;;;;;11.02;3.60;;;;;;;;;;10406760;28;20040;-46
2023/01/26 14:20:33;;;;;;;15.55;3.95;;;;;;;;;;10408001;28;20025;-46
2023/01/26 14:25:34;;;;;;;19.70;4.40;;;;;;;;;;10407357;28;20033;-45
2023/01/26 14:30:34;;;;;;;23.17;4.55;;;;;;;;;;10402312;28;20465;-47
2023/01/26 14:35:35;;;;;;;46.00;4.75;;;;;;;;;;10399553;28;20381;-53
2023/01/26 14:40:53;;;;;;;47.35;4.93;;;;;;;;;;10406771;28;20393;-56
2023/01/26 14:46:03;;;;;;;21.88;4.10;;;;;;;;;;10390280;28;20061;-54
2023/01/26 14:51:05;;;;;;;36.25;4.50;;;;;;;;;;10405783;28;20257;-53
2023/01/26 14:56:18;;;;;;;25.67;4.93;;;;;;;;;;10387436;28;20495;-55
2023/01/26 15:01:25;;;;;;;17.13;4.20;;;;;;;;;;10390157;28;20021;-53
2023/01/26 15:06:28;;;;;;;17.70;4.65;;;;;;;;;;10398707;28;20079;-54
2023/01/26 15:16:59;;;;;;;15.82;4.10;;;;;;;;;;10404334;28;20026;-58
2023/01/26 15:21:59;;;;;;;15.02;4.65;;;;;;;;;;10406235;28;20022;-55
2023/01/26 15:27:05;;;;;;;8.85;3.38;;;;;;;;;;10405605;28;20049;-53
2023/01/26 15:32:05;;;;;;;10.90;4.00;;;;;;;;;;10406200;28;20026;-54
2023/01/26 15:37:30;;;;;;;12.07;4.05;;;;;;;;;;10406360;28;20045;-53
2023/01/26 15:42:32;;;;;;;6.80;3.38;;;;;;;;;;10406228;28;20036;-52
2023/01/26 15:47:32;;;;;;;9.25;3.60;;;;;;;;;;10414349;28;20018;-54
2023/01/26 15:52:33;;;;;;;8.13;3.53;;;;;;;;;;10413172;28;20488;-49
2023/01/26 15:57:33;;;;;;;8.00;3.63;;;;;;;;;;10413128;28;20245;-57
2023/01/26 16:02:34;;;;;;;6.15;3.47;;;;;;;;;;10395071;28;20666;-52
2023/01/26 16:07:34;;;;;;;9.25;3.50;;;;;;;;;;10412349;28;20026;-53
2023/01/26 16:12:35;;;;;;;7.32;3.67;;;;;;;;;;10412470;28;20373;-52
2023/01/26 16:17:36;;;;;;;7.47;3.45;;;;;;;;;;10412230;28;20025;-51
2023/01/26 16:22:36;;;;;;;9.48;3.67;;;;;;;;;;10413111;28;20032;-52
2023/01/26 16:27:37;;;;;;;4.90;3.45;;;;;;;;;;10412185;28;20049;-50
2023/01/26 16:32:37;;;;;;;7.97;3.30;;;;;;;;;;10411799;28;20044;-54
2023/01/26 16:37:38;;;;;;;6.55;3.25;;;;;;;;;;10411687;28;20041;-52
2023/01/26 16:42:43;;;;;;;6.88;4.20;;;;;;;;;;10411286;28;20033;-54
2023/01/26 16:47:47;;;;;;;11.52;3.78;;;;;;;;;;10394118;28;20028;-56
2023/01/26 16:52:47;;;;;;;9.30;3.47;;;;;;;;;;10410762;28;20030;-53
2023/01/26 16:57:48;;;;;;;5.03;2.83;;;;;;;;;;10409782;28;20481;-49
2023/01/26 17:02:51;;;;;;;7.65;3.50;;;;;;;;;;10406744;28;20499;-51
2023/01/26 17:07:52;;;;;;;8.68;3.65;;;;;;;;;;10410361;28;20091;-51
2023/01/26 17:12:52;;;;;;;7.38;3.42;;;;;;;;;;10409841;28;20044;-49
2023/01/26 17:17:53;;;;;;;7.93;3.60;;;;;;;;;;10409374;28;20025;-48
2023/01/26 17:22:54;;;;;;;6.60;4.03;;;;;;;;;;10408607;28;20047;-47
2023/01/26 17:27:55;;;;;;;6.50;4.05;;;;;;;;;;10408413;28;20076;-47
2023/01/26 17:32:55;;;;;;;6.30;3.95;;;;;;;;;;10407914;28;20041;-46
2023/01/26 17:37:56;;;;;;;7.22;3.75;;;;;;;;;;10365452;28;20543;-46
2023/01/26 17:42:56;;;;;;;7.20;3.90;;;;;;;;;;10366196;28;20029;-47
2023/01/26 17:47:57;;;;;;;11.77;3.80;;;;;;;;;;10364636;28;20026;-47
2023/01/26 17:52:57;;;;;;;4.90;3.55;;;;;;;;;;10366294;28;20041;-46
2023/01/26 17:57:58;;;;;;;6.25;3.70;;;;;;;;;;10367432;28;20018;-48
2023/01/26 18:02:58;;;;;;;7.60;3.85;;;;;;;;;;10366107;28;20046;-48
2023/01/26 18:07:59;;;;;;;6.35;3.20;;;;;;;;;;10364081;28;20207;-51
2023/01/26 18:13:00;;;;;;;7.65;3.45;;;;;;;;;;10361030;28;20088;-46
2023/01/26 18:18:01;;;;;;;6.85;3.72;;;;;;;;;;10363326;28;20172;-48
2023/01/26 18:23:02;;;;;;;11.85;4.22;;;;;;;;;;10358024;28;20026;-49
2023/01/26 18:28:02;;;;;;;6.03;3.40;;;;;;;;;;10366169;28;20500;-48
2023/01/26 18:33:03;;;;;;;6.63;4.07;;;;;;;;;;10365245;28;20026;-47
2023/01/26 18:38:04;;;;;;;7.72;3.88;;;;;;;;;;10393758;28;20034;-47
2023/01/26 18:43:04;;;;;;;5.53;3.80;;;;;;;;;;10406751;28;20412;-46
2023/01/26 18:48:05;;;;;;;6.38;3.38;;;;;;;;;;10384906;28;20021;-53
2023/01/26 18:53:06;;;;;;;5.38;3.40;;;;;;;;;;10386861;28;20033;-47
2023/01/26 18:58:06;;;;;;;12.10;3.50;;;;;;;;;;10400913;28;20022;-49
2023/01/26 19:03:08;;;;;;;7.72;3.80;;;;;;;;;;10403747;28;20424;-49
2023/01/26 19:08:09;;;;;;;8.00;3.13;;;;;;;;;;10402372;28;20030;-49
2023/01/26 19:13:09;;;;;;;5.60;3.05;;;;;;;;;;10403076;28;20025;-50
2023/01/26 19:18:10;;;;;;;6.00;3.55;;;;;;;;;;10400716;28;20029;-50
2023/01/26 19:23:11;;;;;;;5.65;2.88;;;;;;;;;;10407212;28;20034;-47
2023/01/26 19:28:11;;;;;;;5.75;3.10;;;;;;;;;;10413708;28;20037;-49
2023/01/26 19:33:24;;;;;;;9.95;3.25;;;;;;;;;;10407109;28;20040;-46
2023/01/26 19:38:25;;;;;;;14.93;4.18;;;;;;;;;;10411337;28;20037;-48
2023/01/26 19:43:26;;;;;;;15.30;4.80;;;;;;;;;;10413877;28;20026;-47
2023/01/26 19:48:27;;;;;;;10.40;4.18;;;;;;;;;;10409989;28;20028;-46
2023/01/26 19:53:36;;;;;;;20.85;5.75;;;;;;;;;;10408441;28;20033;-46
2023/01/26 19:58:37;;;;;;;;;;;;;;;;;;10399837;28;20174;-45
2023/01/26 20:03:38;;;;;;;15.55;4.97;;;;;;;;;;10411498;28;19913;-46
2023/01/26 20:08:39;;;;;;;11.88;4.47;;;;;;;;;;10408111;28;20036;-47
2023/01/26 20:13:39;;;;;;;13.48;4.68;;;;;;;;;;10410163;28;20029;-47
2023/01/26 20:18:40;;;;;;;15.38;5.32;;;;;;;;;;10411055;28;20473;-47
2023/01/26 20:23:40;;;;;;;10.88;4.80;;;;;;;;;;10410195;28;20052;-46
2023/01/26 20:28:41;;;;;;;15.05;4.90;;;;;;;;;;10404864;28;20030;-47
2023/01/26 20:33:46;;;;;;;12.55;5.10;;;;;;;;;;10411046;28;20401;-50
2023/01/26 20:38:48;;;;;;;20.25;4.88;;;;;;;;;;10410221;28;20124;-47
2023/01/26 20:43:49;;;;;;;9.63;4.22;;;;;;;;;;10411371;28;20088;-46
2023/01/26 20:48:50;;;;;;;8.48;4.53;;;;;;;;;;10393115;28;20280;-46
2023/01/26 20:53:51;;;;;;;12.40;4.45;;;;;;;;;;10409336;28;20025;-47
2023/01/26 20:58:53;;;;;;;10.95;4.63;;;;;;;;;;10409315;28;20029;-45
2023/01/26 21:03:54;;;;;;;13.38;4.75;;;;;;;;;;10407960;28;20025;-46
2023/01/26 21:08:57;;;;;;;10.88;4.90;;;;;;;;;;10389657;28;20151;-46
2023/01/26 21:14:00;;;;;;;8.00;4.30;;;;;;;;;;10406853;28;20030;-47
2023/01/26 21:19:01;;;;;;;9.07;4.32;;;;;;;;;;10408835;28;20033;-49
2023/01/26 21:24:01;;;;;;;7.15;4.30;;;;;;;;;;10409453;28;20385;-48
2023/01/26 21:29:03;;;;;;;7.05;3.67;;;;;;;;;;10409669;28;20032;-46
2023/01/26 21:34:03;;;;;;;8.52;3.80;;;;;;;;;;10409325;28;20067;-47
2023/01/26 21:39:06;;;;;;;7.13;3.90;;;;;;;;;;10409009;28;20038;-46
2023/01/26 21:44:15;;;;;;;7.38;4.45;;;;;;;;;;10409400;28;20029;-46
2023/01/26 21:49:16;;;;;;;17.20;6.30;;;;;;;;;;10405234;28;20041;-47
2023/01/26 21:54:17;;;;;;;17.88;5.07;;;;;;;;;;10407862;28;20083;-47
2023/01/26 21:59:18;;;;;;;13.73;5.85;;;;;;;;;;10407658;28;20104;-46
2023/01/26 22:04:26;;;;;;;19.50;4.93;;;;;;;;;;10406722;28;20041;-45
2023/01/26 22:09:27;;;;;;;13.63;5.10;;;;;;;;;;10402480;28;20037;-46
2023/01/26 22:14:28;;;;;;;10.52;4.50;;;;;;;;;;10411143;28;20038;-45
2023/01/26 22:19:29;;;;;;;9.05;4.60;;;;;;;;;;10391323;28;20036;-47
2023/01/26 22:24:29;;;;;;;9.43;5.88;;;;;;;;;;10407445;28;20106;-46
2023/01/26 22:29:30;;;;;;;17.23;4.85;;;;;;;;;;10408034;28;20033;-45
2023/01/26 22:34:31;;;;;;;8.30;4.97;;;;;;;;;;10407952;28;20044;-47
2023/01/26 22:39:31;;;;;;;12.13;5.20;;;;;;;;;;10405797;28;20037;-46
2023/01/26 22:44:32;;;;;;;8.82;4.40;;;;;;;;;;10407886;28;20022;-46
2023/01/26 22:49:33;;;;;;;12.88;5.53;;;;;;;;;;10405612;28;20025;-48
2023/01/26 22:54:34;;;;;;;10.00;4.70;;;;;;;;;;10406293;28;20029;-46
2023/01/26 22:59:35;;;;;;;10.07;5.13;;;;;;;;;;10406814;28;20022;-46
2023/01/26 23:04:35;;;;;;;9.82;5.50;;;;;;;;;;10396967;28;20393;-46
2023/01/26 23:09:36;;;;;;;7.70;4.63;;;;;;;;;;10404735;28;20025;-45
2023/01/26 23:14:36;;;;;;;6.30;4.20;;;;;;;;;;10404420;28;20025;-47
2023/01/26 23:19:37;;;;;;;7.90;5.07;;;;;;;;;;10404681;28;20037;-48
2023/01/26 23:24:38;;;;;;;11.38;5.18;;;;;;;;;;10404830;28;20026;-48
2023/01/26 23:29:38;;;;;;;10.68;4.53;;;;;;;;;;10404521;28;20025;-47
2023/01/26 23:34:39;;;;;;;12.75;4.47;;;;;;;;;;10404528;28;20029;-46
2023/01/26 23:39:39;;;;;;;8.48;4.70;;;;;;;;;;10405715;28;20053;-46
2023/01/26 23:44:40;;;;;;;6.57;4.35;;;;;;;;;;10405185;28;20087;-46
2023/01/26 23:49:41;;;;;;;7.68;4.45;;;;;;;;;;10400583;28;20033;-45
2023/01/26 23:54:41;;;;;;;6.45;4.25;;;;;;;;;;10405252;28;20505;-46
2023/01/26 23:59:42;;;;;;;8.88;4.13;;;;;;;;;;10402247;28;20026;-54
